Time;durP1;ratioP1;P1;durP2;ratioP2;P2;SDS_P1;SDS_P2;PMS_P1;PMS_P2;Temp;Humidity;BMP_temperature;BMP_pressure;BME280_temperature;BME280_humidity;BME280_pressure;Samples;Min_cycle;Max_cycle;Signal;HPM_P1;HPM_P2
2022/11/04 00:02:18;;;;;;;0.70;0.70;;;11.50;90.00;;;;;;5095184;28;20047;-77
2022/11/04 00:04:43;;;;;;;0.70;0.60;;;11.50;90.10;;;;;;5113092;28;20075;-77
2022/11/04 00:08:22;;;;;;;1.00;0.80;;;11.40;90.00;;;;;;5113928;28;20134;-76
2022/11/04 00:09:54;;;;;;;1.38;0.70;;;11.50;90.00;;;;;;5082634;28;20047;-76
2022/11/04 00:12:24;;;;;;;1.20;0.90;;;11.50;90.00;;;;;;5113196;28;20184;-76
2022/11/04 00:14:50;;;;;;;1.00;0.73;;;11.50;90.10;;;;;;5094952;28;20044;-77
2022/11/04 00:17:20;;;;;;;1.65;1.20;;;11.40;90.10;;;;;;5113268;28;20039;-76
2022/11/04 00:30:44;;;;;;;2.55;1.77;;;11.40;90.10;;;;;;5096120;28;20055;-77
2022/11/04 00:33:24;;;;;;;2.65;1.63;;;11.30;90.40;;;;;;5113339;28;20378;-76
2022/11/04 00:35:52;;;;;;;3.10;1.85;;;11.30;90.20;;;;;;5094079;28;20456;-77
2022/11/04 00:38:18;;;;;;;2.42;1.70;;;11.30;90.20;;;;;;5113101;28;20027;-77
2022/11/04 00:40:44;;;;;;;3.00;1.90;;;11.40;90.20;;;;;;5113292;28;20112;-77
2022/11/04 00:43:10;;;;;;;2.63;1.85;;;11.40;90.20;;;;;;5113067;28;20448;-76
2022/11/04 00:45:36;;;;;;;2.95;2.10;;;11.40;90.20;;;;;;5114435;28;20056;-76
2022/11/04 00:48:02;;;;;;;2.55;1.75;;;11.40;90.20;;;;;;5096633;28;20044;-77
2022/11/04 00:50:27;;;;;;;2.70;1.73;;;11.20;90.20;;;;;;5094339;28;20093;-76
2022/11/04 00:53:02;;;;;;;2.47;1.45;;;11.30;90.20;;;;;;5112748;28;20048;-77
2022/11/04 00:55:28;;;;;;;1.75;1.50;;;11.20;90.20;;;;;;5111199;28;20451;-77
2022/11/04 00:57:54;;;;;;;1.38;1.02;;;11.20;90.30;;;;;;5094330;28;20035;-76
2022/11/04 01:00:20;;;;;;;1.23;1.13;;;11.10;90.30;;;;;;5094764;28;20050;-77
2022/11/04 01:02:46;;;;;;;0.90;0.90;;;11.10;90.30;;;;;;5077298;28;20481;-77
2022/11/04 01:05:12;;;;;;;0.98;0.88;;;11.10;90.30;;;;;;5094198;28;20511;-77
2022/11/04 01:07:38;;;;;;;0.80;0.80;;;11.00;90.30;;;;;;5094172;28;20177;-77
2022/11/04 01:10:05;;;;;;;1.30;0.75;;;11.00;90.40;;;;;;5093973;28;20044;-76
2022/11/04 01:12:34;;;;;;;1.35;1.00;;;10.90;90.40;;;;;;5112729;28;20090;-77
2022/11/04 01:15:00;;;;;;;0.55;0.55;;;10.90;90.40;;;;;;5095399;28;20463;-77
2022/11/04 01:17:26;;;;;;;0.80;0.60;;;10.80;90.40;;;;;;5093957;28;20071;-77
2022/11/04 01:19:51;;;;;;;0.60;0.60;;;10.80;90.40;;;;;;5112468;28;20120;-76
2022/11/04 01:22:17;;;;;;;0.98;0.60;;;10.80;90.40;;;;;;5098009;28;20047;-77
2022/11/04 01:24:43;;;;;;;0.52;0.40;;;10.80;90.40;;;;;;5080881;28;20043;-77
2022/11/04 01:27:08;;;;;;;0.70;0.60;;;10.70;90.40;;;;;;5116126;28;20036;-77
2022/11/04 01:29:34;;;;;;;0.55;0.43;;;10.70;90.40;;;;;;5116468;28;20032;-77
2022/11/04 01:32:00;;;;;;;0.38;0.38;;;10.70;90.40;;;;;;5115601;28;20440;-76
2022/11/04 01:34:26;;;;;;;0.30;0.30;;;10.70;90.40;;;;;;5097241;28;20035;-77
2022/11/04 01:36:51;;;;;;;0.40;0.40;;;10.60;90.40;;;;;;5097214;28;20071;-77
2022/11/04 01:39:17;;;;;;;0.40;0.38;;;10.60;90.40;;;;;;5115431;28;20038;-76
2022/11/04 01:41:42;;;;;;;0.30;0.30;;;10.60;90.40;;;;;;5097703;28;20130;-76
2022/11/04 01:44:39;;;;;;;0.40;0.40;;;10.60;90.40;;;;;;5115538;28;20405;-77
2022/11/04 01:47:04;;;;;;;0.50;0.50;;;10.60;90.40;;;;;;5115286;28;20044;-76
2022/11/04 01:49:36;;;;;;;0.68;0.68;;;10.60;90.40;;;;;;5115404;28;20046;-76
2022/11/04 01:52:07;;;;;;;1.00;0.80;;;10.50;90.40;;;;;;5097041;28;20143;-77
2022/11/04 01:54:34;;;;;;;;;;;10.50;90.40;;;;;;5115710;28;20036;-76
2022/11/04 01:57:01;;;;;;;1.15;1.00;;;10.40;90.30;;;;;;5115023;28;20002;-76
2022/11/04 01:59:33;;;;;;;1.60;1.20;;;10.40;90.40;;;;;;5097309;28;20043;-76
2022/11/04 02:01:59;;;;;;;1.58;1.10;;;10.40;90.30;;;;;;5081170;28;20409;-76
2022/11/04 02:04:26;;;;;;;1.83;1.40;;;10.40;90.40;;;;;;5114810;28;20039;-77
2022/11/04 02:06:58;;;;;;;1.88;1.42;;;10.40;90.40;;;;;;5115209;28;20031;-76
2022/11/04 02:09:26;;;;;;;3.03;1.63;;;10.30;90.40;;;;;;5095825;28;20039;-76
2022/11/04 02:14:36;;;;;;;2.63;1.63;;;10.30;90.40;;;;;;5114976;28;20036;-77
2022/11/04 02:17:42;;;;;;;2.63;1.65;;;10.30;90.40;;;;;;5096538;28;20042;-77
2022/11/04 02:20:28;;;;;;;2.65;1.77;;;10.30;90.40;;;;;;5113300;28;20035;-77
2022/11/04 02:23:31;;;;;;;2.33;1.73;;;10.30;90.40;;;;;;5096820;28;20566;-77
2022/11/04 02:26:31;;;;;;;3.40;2.13;;;10.30;90.40;;;;;;5113209;28;20035;-77
2022/11/04 02:29:31;;;;;;;2.90;2.00;;;10.30;90.40;;;;;;5096364;28;20135;-76
2022/11/04 02:32:31;;;;;;;2.33;1.63;;;10.30;90.30;;;;;;5112081;28;20047;-77
2022/11/04 02:35:22;;;;;;;3.70;1.88;;;10.30;90.30;;;;;;5114470;28;20135;-77
2022/11/04 02:38:09;;;;;;;2.30;1.63;;;10.30;90.30;;;;;;5114463;28;20051;-77
2022/11/04 02:40:52;;;;;;;2.78;1.73;;;10.40;90.40;;;;;;5114337;28;20266;-76
2022/11/04 02:43:38;;;;;;;1.95;1.60;;;10.30;90.30;;;;;;5096301;28;20050;-76
2022/11/04 02:46:21;;;;;;;2.95;1.95;;;10.40;90.30;;;;;;5095419;28;20460;-76
2022/11/04 02:49:01;;;;;;;3.38;1.73;;;10.30;90.30;;;;;;5114378;28;20122;-76
2022/11/04 02:51:49;;;;;;;2.75;1.80;;;10.40;90.40;;;;;;5115144;28;20043;-76
2022/11/04 02:54:32;;;;;;;2.33;1.70;;;10.40;90.30;;;;;;5114725;28;20047;-76
2022/11/04 02:57:01;;;;;;;2.47;1.70;;;10.40;90.30;;;;;;5096082;28;20481;-76
2022/11/04 02:59:48;;;;;;;3.05;1.83;;;10.30;90.30;;;;;;5114588;28;20128;-76
2022/11/04 03:02:21;;;;;;;2.38;1.60;;;10.30;90.40;;;;;;5094697;28;20040;-76
2022/11/04 03:04:51;;;;;;;2.58;1.65;;;10.30;90.40;;;;;;5077819;28;20050;-76
2022/11/04 03:07:24;;;;;;;2.63;1.83;;;10.30;90.40;;;;;;5095738;28;20116;-76
2022/11/04 03:10:01;;;;;;;2.88;1.80;;;10.30;90.40;;;;;;5095828;28;20062;-76
2022/11/04 03:12:31;;;;;;;2.63;1.60;;;10.40;90.50;;;;;;5114324;28;20044;-77
2022/11/04 03:15:04;;;;;;;2.83;1.80;;;10.30;90.40;;;;;;5114563;28;20040;-76
2022/11/04 03:17:39;;;;;;;2.70;1.80;;;10.30;90.40;;;;;;5112319;28;20510;-76
2022/11/04 03:20:12;;;;;;;3.15;1.92;;;10.40;90.40;;;;;;5112894;28;20088;-76
2022/11/04 03:22:38;;;;;;;3.47;2.08;;;10.40;90.40;;;;;;5079361;28;20142;-76
2022/11/04 03:25:06;;;;;;;3.42;2.08;;;10.40;90.40;;;;;;5095843;28;20101;-76
2022/11/04 03:27:45;;;;;;;3.28;2.03;;;10.40;90.40;;;;;;5113662;28;20185;-76
2022/11/04 03:30:16;;;;;;;2.80;1.90;;;10.40;90.40;;;;;;5095486;28;20052;-76
2022/11/04 03:32:46;;;;;;;;;;;10.40;90.40;;;;;;5079316;28;20050;-75
2022/11/04 03:35:15;;;;;;;2.40;1.75;;;10.40;90.40;;;;;;5095635;28;20341;-76
2022/11/04 03:37:42;;;;;;;2.35;1.50;;;10.40;90.30;;;;;;5095653;28;20027;-75
2022/11/04 03:40:09;;;;;;;3.58;2.00;;;10.40;90.40;;;;;;5114023;28;20036;-75
2022/11/04 03:42:40;;;;;;;3.13;2.20;;;10.30;90.30;;;;;;5095085;28;20035;-76
2022/11/04 03:45:07;;;;;;;3.40;2.38;;;10.40;90.40;;;;;;5078957;28;20040;-76
2022/11/04 03:47:33;;;;;;;3.53;2.13;;;10.40;90.40;;;;;;5078720;28;20047;-76
2022/11/04 03:50:08;;;;;;;3.40;1.98;;;10.30;90.60;;;;;;5094875;28;20042;-76
2022/11/04 03:52:35;;;;;;;2.60;1.60;;;10.40;90.40;;;;;;5093635;28;20051;-76
2022/11/04 03:55:03;;;;;;;2.70;1.80;;;10.40;90.40;;;;;;5111589;28;20118;-76
2022/11/04 03:57:57;;;;;;;2.45;1.60;;;10.30;90.40;;;;;;5095014;28;20500;-76
2022/11/04 04:00:25;;;;;;;2.88;1.60;;;10.30;90.40;;;;;;5113658;28;20039;-76
2022/11/04 04:03:10;;;;;;;2.42;1.50;;;10.30;90.40;;;;;;5113063;28;20044;-76
2022/11/04 04:05:49;;;;;;;2.55;1.60;;;10.30;90.40;;;;;;5113135;28;20035;-76
2022/11/04 04:08:36;;;;;;;1.63;1.23;;;10.50;90.50;;;;;;5113456;28;20440;-76
2022/11/04 04:11:28;;;;;;;1.10;1.00;;;10.30;90.50;;;;;;5095343;28;20040;-76
2022/11/04 04:13:58;;;;;;;;;;;10.30;90.50;;;;;;5099344;28;20048;-76
2022/11/04 04:16:33;;;;;;;1.63;1.13;;;10.30;90.50;;;;;;5112894;28;19911;-76
2022/11/04 04:19:09;;;;;;;1.00;0.80;;;10.20;90.50;;;;;;5113087;28;20047;-76
2022/11/04 04:21:43;;;;;;;1.25;1.08;;;10.30;90.50;;;;;;5094712;28;20500;-76
2022/11/04 04:29:28;;;;;;;1.75;1.20;;;10.20;90.60;;;;;;5096613;28;20085;-76
2022/11/04 04:31:57;;;;;;;1.23;1.00;;;10.10;90.60;;;;;;5113067;28;20142;-76
2022/11/04 04:34:29;;;;;;;1.27;0.90;;;10.00;90.60;;;;;;5078113;28;20039;-76
2022/11/04 04:37:04;;;;;;;1.17;0.80;;;10.10;90.70;;;;;;5093136;28;20078;-76
2022/11/04 04:45:03;;;;;;;1.38;0.80;;;9.90;90.70;;;;;;5096670;28;20048;-76
2022/11/04 04:47:38;;;;;;;1.52;0.80;;;9.90;90.80;;;;;;5112733;28;20035;-76
2022/11/04 04:50:04;;;;;;;0.93;0.75;;;9.80;90.80;;;;;;5078112;28;20134;-76
2022/11/04 04:52:33;;;;;;;0.90;0.63;;;9.80;90.80;;;;;;5112689;28;20044;-76
2022/11/04 04:54:59;;;;;;;0.90;0.80;;;9.70;90.80;;;;;;5111982;28;20051;-76
2022/11/04 04:57:25;;;;;;;0.80;0.60;;;9.70;90.80;;;;;;5112927;28;20092;-76
2022/11/04 04:59:50;;;;;;;0.70;0.50;;;9.80;90.80;;;;;;5112905;28;20028;-76
2022/11/04 05:02:16;;;;;;;0.60;0.52;;;9.60;90.80;;;;;;5077329;28;20061;-76
2022/11/04 05:04:42;;;;;;;1.55;0.80;;;9.60;90.80;;;;;;5112583;28;20039;-76
2022/11/04 05:07:08;;;;;;;0.50;0.50;;;9.60;90.90;;;;;;5094924;28;20393;-76
2022/11/04 05:09:35;;;;;;;1.05;0.68;;;9.60;90.90;;;;;;5112425;28;20054;-76
2022/11/04 05:12:01;;;;;;;0.63;0.52;;;9.50;90.80;;;;;;5094227;28;20054;-76
2022/11/04 05:14:27;;;;;;;0.60;0.60;;;9.40;90.80;;;;;;5094034;28;20039;-76
2022/11/04 05:16:53;;;;;;;0.65;0.60;;;9.50;90.90;;;;;;5112337;28;20078;-76
2022/11/04 05:19:19;;;;;;;0.98;0.75;;;9.50;90.90;;;;;;5094169;28;20117;-76
2022/11/04 05:21:44;;;;;;;1.05;0.80;;;9.40;90.90;;;;;;5112356;28;20043;-76
2022/11/04 05:24:10;;;;;;;1.40;0.70;;;9.40;90.90;;;;;;5112241;28;20039;-76
2022/11/04 05:26:36;;;;;;;0.60;0.50;;;9.30;90.90;;;;;;5077052;28;20040;-76
2022/11/04 05:29:02;;;;;;;0.50;0.50;;;9.20;90.90;;;;;;5094383;28;20043;-76
2022/11/04 05:31:29;;;;;;;0.70;0.50;;;9.30;90.90;;;;;;5077562;28;20119;-76
2022/11/04 05:33:55;;;;;;;1.08;0.57;;;9.20;91.00;;;;;;5112228;28;20165;-76
2022/11/04 05:36:21;;;;;;;0.95;0.73;;;9.20;91.00;;;;;;5112198;28;20493;-76
2022/11/04 05:38:52;;;;;;;0.43;0.43;;;9.20;91.00;;;;;;5112113;28;20042;-76
2022/11/04 05:41:25;;;;;;;1.00;0.77;;;9.20;91.00;;;;;;5093809;28;20097;-75
2022/11/04 05:43:53;;;;;;;0.60;0.40;;;9.20;91.00;;;;;;5112105;28;20064;-76
2022/11/04 05:46:19;;;;;;;0.55;0.40;;;9.30;91.00;;;;;;5111832;28;20043;-76
2022/11/04 05:48:45;;;;;;;0.80;0.50;;;9.10;90.90;;;;;;5111904;28;20040;-75
2022/11/04 05:51:15;;;;;;;0.43;0.43;;;9.20;90.90;;;;;;5076876;28;20397;-76
2022/11/04 05:53:41;;;;;;;0.95;0.60;;;9.10;90.90;;;;;;5093575;28;20417;-76
2022/11/04 05:56:07;;;;;;;0.43;0.43;;;9.20;90.90;;;;;;5111622;28;20389;-75
2022/11/04 05:58:33;;;;;;;0.82;0.50;;;9.20;90.90;;;;;;5094244;28;20039;-76
2022/11/04 06:01:11;;;;;;;0.60;0.50;;;9.20;90.90;;;;;;5112176;28;20438;-76
2022/11/04 06:03:37;;;;;;;0.40;0.40;;;9.20;90.90;;;;;;5093699;28;20047;-76
2022/11/04 06:06:03;;;;;;;0.40;0.40;;;9.20;90.80;;;;;;5111968;28;20043;-76
2022/11/04 06:08:30;;;;;;;0.40;0.40;;;9.20;90.80;;;;;;5115589;28;20552;-76
2022/11/04 06:10:56;;;;;;;0.60;0.55;;;9.20;90.80;;;;;;5080535;28;20044;-76
2022/11/04 06:13:22;;;;;;;0.70;0.50;;;9.20;90.80;;;;;;5115191;28;20512;-76
2022/11/04 06:15:48;;;;;;;0.90;0.60;;;9.30;90.80;;;;;;5097014;28;20092;-76
2022/11/04 06:18:13;;;;;;;1.52;0.55;;;9.10;90.80;;;;;;5115107;28;20473;-76
2022/11/04 06:20:39;;;;;;;0.55;0.40;;;9.20;90.80;;;;;;5115461;28;20101;-75
2022/11/04 06:23:05;;;;;;;0.40;0.40;;;9.20;90.80;;;;;;5097097;28;20055;-76
2022/11/04 06:25:31;;;;;;;0.52;0.40;;;9.20;90.80;;;;;;5115581;28;20039;-76
2022/11/04 06:27:57;;;;;;;0.22;0.20;;;9.20;90.80;;;;;;5096716;28;20445;-76
2022/11/04 06:30:22;;;;;;;0.28;0.28;;;9.10;90.80;;;;;;5096578;28;20039;-76
2022/11/04 06:32:48;;;;;;;0.43;0.40;;;9.10;90.80;;;;;;5115126;28;20044;-76
2022/11/04 06:35:14;;;;;;;0.80;0.50;;;9.10;90.80;;;;;;5115104;28;20027;-76
2022/11/04 06:37:39;;;;;;;0.38;0.38;;;9.10;90.80;;;;;;5115243;28;20045;-76
2022/11/04 06:40:06;;;;;;;0.32;0.32;;;9.10;90.80;;;;;;5115275;28;20039;-76
2022/11/04 06:42:31;;;;;;;0.45;0.45;;;9.10;90.80;;;;;;5079966;28;20043;-76
2022/11/04 06:44:57;;;;;;;0.30;0.30;;;9.20;90.80;;;;;;5115383;28;20442;-75
2022/11/04 06:47:23;;;;;;;0.38;0.30;;;9.20;90.80;;;;;;5114623;28;20484;-76
2022/11/04 06:49:48;;;;;;;0.43;0.43;;;9.10;90.70;;;;;;5114724;28;20409;-76
2022/11/04 06:52:14;;;;;;;0.50;0.47;;;9.10;90.80;;;;;;5096069;28;20059;-76
2022/11/04 06:54:40;;;;;;;0.85;0.30;;;9.10;90.80;;;;;;5115190;28;20039;-75
2022/11/04 06:57:07;;;;;;;0.60;0.50;;;9.10;90.80;;;;;;5096464;28;20038;-76
2022/11/04 06:59:33;;;;;;;2.08;0.60;;;9.10;90.80;;;;;;5096207;28;20089;-76
2022/11/04 07:01:58;;;;;;;0.77;0.50;;;9.10;90.80;;;;;;5114594;28;20043;-75
2022/11/04 07:04:24;;;;;;;0.43;0.40;;;9.00;90.80;;;;;;5114453;28;20039;-76
2022/11/04 07:06:50;;;;;;;0.35;0.30;;;8.90;90.70;;;;;;5095997;28;20048;-75
2022/11/04 07:09:16;;;;;;;0.82;0.50;;;9.00;90.80;;;;;;5095985;28;20043;-75
2022/11/04 07:11:43;;;;;;;0.75;0.50;;;9.00;90.80;;;;;;5096671;28;20445;-75
2022/11/04 07:14:09;;;;;;;0.32;0.30;;;9.00;90.80;;;;;;5095985;28;20401;-75
2022/11/04 07:16:35;;;;;;;0.68;0.35;;;8.90;90.80;;;;;;5096142;28;20035;-75
2022/11/04 07:19:01;;;;;;;0.40;0.40;;;8.90;90.80;;;;;;5113872;28;20405;-74
2022/11/04 07:21:27;;;;;;;0.25;0.25;;;9.00;90.80;;;;;;5096227;28;20043;-75
2022/11/04 07:23:52;;;;;;;0.20;0.20;;;9.00;90.80;;;;;;5096219;28;20044;-75
2022/11/04 07:26:18;;;;;;;0.60;0.50;;;9.00;90.80;;;;;;5114026;28;20488;-75
2022/11/04 07:28:44;;;;;;;0.40;0.32;;;9.10;90.80;;;;;;5114082;28;20046;-75
2022/11/04 07:31:11;;;;;;;0.38;0.30;;;9.00;90.80;;;;;;5095756;28;20048;-75
2022/11/04 07:33:37;;;;;;;0.65;0.30;;;9.00;90.80;;;;;;5113886;28;20105;-75
2022/11/04 07:36:05;;;;;;;0.43;0.30;;;9.00;90.80;;;;;;5096028;28;20047;-75
2022/11/04 07:38:31;;;;;;;0.40;0.40;;;9.10;90.80;;;;;;5096534;28;20048;-73
2022/11/04 07:40:57;;;;;;;0.40;0.40;;;9.00;90.80;;;;;;5113923;28;20477;-75
2022/11/04 07:43:23;;;;;;;1.25;0.70;;;9.00;90.80;;;;;;5078984;28;20213;-75
2022/11/04 07:46:00;;;;;;;0.60;0.30;;;9.10;90.80;;;;;;5095875;28;20126;-75
2022/11/04 07:48:26;;;;;;;0.50;0.45;;;9.00;90.80;;;;;;5113702;28;20128;-75
2022/11/04 07:50:56;;;;;;;0.30;0.30;;;9.00;90.70;;;;;;5113765;28;20043;-75
2022/11/04 07:53:21;;;;;;;0.35;0.32;;;9.00;90.70;;;;;;5114123;28;20051;-75
2022/11/04 07:55:49;;;;;;;0.35;0.35;;;9.10;90.70;;;;;;5113678;28;20405;-75
2022/11/04 07:58:16;;;;;;;0.77;0.50;;;9.10;90.60;;;;;;5113758;28;20042;-75
2022/11/04 08:00:42;;;;;;;0.30;0.30;;;9.10;90.60;;;;;;5113465;28;20044;-75
2022/11/04 08:03:08;;;;;;;0.50;0.50;;;9.20;90.60;;;;;;5095127;28;20051;-75
2022/11/04 08:05:34;;;;;;;0.40;0.32;;;9.20;90.60;;;;;;5113509;28;20043;-75
2022/11/04 08:08:00;;;;;;;0.30;0.30;;;9.20;90.60;;;;;;5113901;28;20066;-75
2022/11/04 08:10:26;;;;;;;1.65;0.60;;;9.30;90.60;;;;;;5095534;28;20059;-75
2022/11/04 08:12:52;;;;;;;0.95;0.50;;;9.30;90.60;;;;;;5095457;28;20039;-75
2022/11/04 08:15:18;;;;;;;0.40;0.40;;;9.30;90.50;;;;;;5113401;28;20443;-75
2022/11/04 08:17:44;;;;;;;0.43;0.40;;;9.40;90.50;;;;;;5095093;28;20481;-75
2022/11/04 08:20:10;;;;;;;0.80;0.50;;;9.40;90.50;;;;;;5095006;28;20039;-76
2022/11/04 08:22:36;;;;;;;0.63;0.40;;;9.30;90.40;;;;;;5113724;28;20378;-76
2022/11/04 08:25:02;;;;;;;0.70;0.45;;;9.40;90.50;;;;;;5094826;28;20035;-76
2022/11/04 08:27:28;;;;;;;0.80;0.30;;;9.40;90.50;;;;;;5094616;28;20043;-76
2022/11/04 08:29:54;;;;;;;0.55;0.38;;;9.40;90.50;;;;;;5111954;28;20053;-74
2022/11/04 08:32:20;;;;;;;0.38;0.38;;;9.50;90.50;;;;;;5077715;28;20039;-75
2022/11/04 08:34:48;;;;;;;0.80;0.50;;;9.50;90.40;;;;;;5113180;28;20031;-76
2022/11/04 08:37:15;;;;;;;1.15;0.60;;;9.50;90.40;;;;;;5111375;28;20067;-76
2022/11/04 08:39:41;;;;;;;0.40;0.40;;;9.50;90.40;;;;;;5096310;28;20044;-76
2022/11/04 08:42:08;;;;;;;0.70;0.50;;;9.60;90.40;;;;;;5094572;28;20046;-79
2022/11/04 08:44:34;;;;;;;0.40;0.40;;;9.60;90.40;;;;;;5095491;28;20039;-76
2022/11/04 08:47:05;;;;;;;0.30;0.30;;;9.60;90.30;;;;;;5061209;28;20046;-79
2022/11/04 08:49:54;;;;;;;0.70;0.45;;;9.60;90.30;;;;;;5113361;28;20040;-80
2022/11/04 08:52:20;;;;;;;0.60;0.50;;;9.60;90.30;;;;;;5112816;28;20039;-77
2022/11/04 08:55:47;;;;;;;1.27;0.47;;;9.70;90.30;;;;;;5112481;28;20481;-79
2022/11/04 08:59:03;;;;;;;0.63;0.50;;;9.70;90.30;;;;;;5012501;28;20531;-77
2022/11/04 09:01:36;;;;;;;1.25;0.60;;;9.80;90.30;;;;;;4940610;28;20073;-77
2022/11/04 09:04:06;;;;;;;1.30;0.55;;;9.80;90.20;;;;;;4955307;28;20132;-78
2022/11/04 09:06:36;;;;;;;0.40;0.40;;;9.80;90.20;;;;;;4939286;28;20045;-78
2022/11/04 09:09:04;;;;;;;1.23;0.73;;;9.90;90.20;;;;;;4938879;28;20087;-76
2022/11/04 09:11:36;;;;;;;2.28;0.70;;;9.90;90.20;;;;;;4939270;28;20121;-77
2022/11/04 09:14:03;;;;;;;1.27;0.60;;;9.90;90.10;;;;;;4938838;28;20042;-78
2022/11/04 09:16:31;;;;;;;0.63;0.55;;;10.00;90.10;;;;;;4974240;28;20098;-77
2022/11/04 09:18:58;;;;;;;0.95;0.60;;;10.00;90.10;;;;;;4963434;28;20061;-76
2022/11/04 09:21:25;;;;;;;0.70;0.50;;;10.10;90.10;;;;;;4938801;28;20043;-75
2022/11/04 09:23:52;;;;;;;0.63;0.60;;;10.10;90.10;;;;;;4954672;28;20134;-75
2022/11/04 09:26:18;;;;;;;1.60;0.60;;;10.20;90.00;;;;;;4954662;28;20043;-75
2022/11/04 09:28:44;;;;;;;1.33;0.63;;;10.30;90.00;;;;;;4975470;28;20080;-76
2022/11/04 09:31:12;;;;;;;0.80;0.60;;;10.40;90.00;;;;;;4996808;28;20069;-75
2022/11/04 09:33:39;;;;;;;0.85;0.40;;;10.30;89.80;;;;;;4997333;28;20080;-75
2022/11/04 09:36:05;;;;;;;0.45;0.43;;;10.40;89.80;;;;;;5029805;28;20046;-75
2022/11/04 09:38:31;;;;;;;1.00;0.55;;;10.50;89.80;;;;;;5072304;28;20397;-75
2022/11/04 09:40:58;;;;;;;1.52;0.68;;;10.60;89.80;;;;;;5112112;28;20127;-76
2022/11/04 09:43:45;;;;;;;0.60;0.60;;;10.60;89.60;;;;;;5116464;28;20079;-76
2022/11/04 09:46:12;;;;;;;0.52;0.50;;;10.90;89.70;;;;;;5098680;28;20039;-76
2022/11/04 09:48:50;;;;;;;0.30;0.30;;;10.80;89.50;;;;;;5123459;28;20092;-75
2022/11/04 09:51:19;;;;;;;0.95;0.63;;;10.90;89.50;;;;;;5116512;28;20126;-77
2022/11/04 09:53:50;;;;;;;0.60;0.60;;;10.90;89.40;;;;;;5060565;28;20124;-78
2022/11/04 09:56:22;;;;;;;0.52;0.52;;;10.90;89.30;;;;;;5095462;28;20036;-78
2022/11/04 09:58:49;;;;;;;1.27;0.40;;;11.00;89.20;;;;;;5115849;28;20181;-78
2022/11/04 10:01:28;;;;;;;1.30;0.60;;;11.10;89.30;;;;;;5097249;28;20039;-78
2022/11/04 10:04:24;;;;;;;3.25;1.00;;;11.10;89.40;;;;;;5101329;28;20096;-79
2022/11/04 10:07:12;;;;;;;0.77;0.63;;;11.10;89.30;;;;;;5098247;28;20051;-79
2022/11/04 10:10:02;;;;;;;3.38;1.00;;;11.10;89.30;;;;;;5116557;28;20489;-77
2022/11/04 10:13:00;;;;;;;4.25;1.10;;;11.10;89.30;;;;;;5100218;28;20055;-78
2022/11/04 10:16:05;;;;;;;2.03;0.77;;;11.20;89.40;;;;;;5117034;28;20035;-78
2022/11/04 10:18:47;;;;;;;1.77;0.60;;;11.20;89.40;;;;;;5087982;28;20130;-77
2022/11/04 10:21:45;;;;;;;2.03;0.80;;;11.20;89.40;;;;;;5089848;28;20042;-77
2022/11/04 10:24:22;;;;;;;0.68;0.40;;;11.40;89.60;;;;;;5119206;28;20096;-75
2022/11/04 10:27:10;;;;;;;1.63;0.60;;;11.30;89.50;;;;;;5118835;28;20036;-78
2022/11/04 10:29:42;;;;;;;0.77;0.60;;;11.30;89.50;;;;;;5127717;28;20043;-79
2022/11/04 10:32:18;;;;;;;0.75;0.52;;;11.40;89.50;;;;;;5107007;28;20047;-77
2022/11/04 10:34:51;;;;;;;0.50;0.50;;;11.50;89.40;;;;;;5124673;28;20040;-77
2022/11/04 10:37:17;;;;;;;0.50;0.50;;;11.60;89.30;;;;;;5121373;28;20039;-77
2022/11/04 10:39:48;;;;;;;1.00;0.50;;;11.60;89.10;;;;;;5099030;28;20070;-78
2022/11/04 10:42:20;;;;;;;0.93;0.60;;;11.60;89.20;;;;;;5120504;28;20566;-76
2022/11/04 10:44:59;;;;;;;0.75;0.60;;;11.70;89.20;;;;;;5107029;28;20044;-83
2022/11/04 10:47:55;;;;;;;0.93;0.70;;;11.80;89.00;;;;;;5069076;28;20050;-81
2022/11/04 10:50:29;;;;;;;1.75;0.80;;;11.80;89.00;;;;;;5084859;28;20134;-77
2022/11/04 10:53:11;;;;;;;1.23;0.73;;;11.80;88.90;;;;;;5095027;28;20039;-77
2022/11/04 10:55:48;;;;;;;2.10;1.00;;;11.80;88.90;;;;;;5112072;28;20047;-77
2022/11/04 10:58:21;;;;;;;1.17;0.73;;;11.80;89.00;;;;;;5131811;28;20048;-74
2022/11/04 11:00:47;;;;;;;1.65;1.00;;;11.90;89.10;;;;;;5116217;28;20039;-76
2022/11/04 11:03:31;;;;;;;0.77;0.70;;;11.90;89.10;;;;;;5124670;28;20054;-77
2022/11/04 11:06:11;;;;;;;1.33;0.93;;;11.90;89.10;;;;;;5105955;28;20146;-77
2022/11/04 11:08:38;;;;;;;1.42;0.98;;;11.90;89.10;;;;;;5131544;28;20039;-76
2022/11/04 11:11:07;;;;;;;1.40;1.10;;;12.00;89.10;;;;;;5118531;28;20054;-79
2022/11/04 11:13:37;;;;;;;2.00;1.27;;;12.00;89.10;;;;;;5116356;28;20039;-79
2022/11/04 11:16:16;;;;;;;1.60;1.20;;;12.00;89.00;;;;;;5097490;28;20031;-78
2022/11/04 11:18:42;;;;;;;1.20;1.00;;;12.00;89.00;;;;;;5099541;28;20042;-78
2022/11/04 11:21:12;;;;;;;1.10;0.98;;;12.10;88.90;;;;;;5096603;28;20958;-77
2022/11/04 11:23:41;;;;;;;1.85;1.17;;;12.10;88.90;;;;;;5079928;28;20431;-77
2022/11/04 11:26:14;;;;;;;2.53;1.20;;;12.20;88.80;;;;;;5115469;28;20110;-77
2022/11/04 11:28:40;;;;;;;1.40;1.15;;;12.20;88.60;;;;;;5096174;28;20190;-77
2022/11/04 11:31:15;;;;;;;1.15;0.95;;;12.10;88.80;;;;;;5114126;28;20093;-74
2022/11/04 11:33:48;;;;;;;1.60;1.20;;;12.20;88.80;;;;;;5095216;28;20048;-75
2022/11/04 11:36:19;;;;;;;1.83;1.30;;;12.30;88.80;;;;;;5114598;28;20569;-76
2022/11/04 11:39:04;;;;;;;2.42;1.45;;;12.30;88.60;;;;;;5111615;28;20123;-77
2022/11/04 11:41:33;;;;;;;1.67;0.90;;;12.30;88.50;;;;;;5113379;28;20042;-77
2022/11/04 11:44:06;;;;;;;1.55;1.25;;;12.30;88.60;;;;;;5079625;28;20118;-78
2022/11/04 11:46:36;;;;;;;2.05;1.10;;;12.40;88.60;;;;;;5096336;28;20558;-78
2022/11/04 11:49:04;;;;;;;1.20;0.85;;;12.40;88.50;;;;;;5096613;28;20397;-77
2022/11/04 11:51:36;;;;;;;2.25;1.40;;;12.40;88.50;;;;;;5095742;28;20048;-78
2022/11/04 11:54:17;;;;;;;1.30;1.20;;;12.50;88.30;;;;;;5078632;28;20051;-76
2022/11/04 11:56:49;;;;;;;2.25;1.40;;;12.50;88.40;;;;;;5113268;28;20096;-75
2022/11/04 11:59:33;;;;;;;1.33;1.20;;;12.40;88.30;;;;;;5097660;28;20113;-76
2022/11/04 12:02:34;;;;;;;1.67;1.20;;;12.50;88.40;;;;;;5114988;28;20058;-76
2022/11/04 12:05:01;;;;;;;1.83;1.00;;;12.60;88.40;;;;;;5122092;28;20043;-75
2022/11/04 12:07:40;;;;;;;1.38;1.10;;;12.70;88.30;;;;;;5128619;28;20040;-81
2022/11/04 12:10:21;;;;;;;1.25;1.00;;;12.80;88.10;;;;;;5115062;28;20471;-78
2022/11/04 12:13:15;;;;;;;1.73;1.00;;;12.90;88.00;;;;;;5087957;28;20040;-77
2022/11/04 12:16:04;;;;;;;1.88;1.30;;;12.90;87.70;;;;;;5113419;28;20040;-74
2022/11/04 12:18:46;;;;;;;2.13;1.45;;;12.80;87.70;;;;;;5112922;28;20039;-77
2022/11/04 12:21:20;;;;;;;1.90;1.40;;;12.90;87.80;;;;;;5094997;28;20058;-77
2022/11/04 12:23:54;;;;;;;3.10;2.30;;;12.80;87.60;;;;;;5095792;28;20043;-78
2022/11/04 12:26:47;;;;;;;2.33;1.73;;;12.70;87.40;;;;;;5112905;28;20054;-75
2022/11/04 12:29:38;;;;;;;2.17;1.52;;;12.60;87.70;;;;;;5097967;28;20051;-75
2022/11/04 12:32:21;;;;;;;3.95;1.50;;;12.60;88.00;;;;;;5094730;28;20091;-75
2022/11/04 12:35:17;;;;;;;1.83;1.52;;;12.60;88.00;;;;;;5096077;28;20047;-75
2022/11/04 12:38:17;;;;;;;2.60;1.38;;;12.70;88.10;;;;;;5111927;28;20092;-75
2022/11/04 12:40:52;;;;;;;2.63;1.67;;;12.70;88.00;;;;;;5099833;28;20077;-75
2022/11/04 12:43:27;;;;;;;1.85;1.38;;;12.60;87.90;;;;;;5113112;28;20056;-75
2022/11/04 12:46:08;;;;;;;1.92;1.50;;;12.70;88.00;;;;;;5111417;28;20493;-75
2022/11/04 12:49:00;;;;;;;1.88;1.35;;;12.70;88.50;;;;;;5077351;28;20036;-75
2022/11/04 12:51:41;;;;;;;1.50;1.20;;;12.70;87.90;;;;;;5097493;28;20050;-75
2022/11/04 12:54:23;;;;;;;2.05;1.15;;;12.70;87.80;;;;;;5110571;28;20048;-75
2022/11/04 12:57:03;;;;;;;1.65;1.20;;;12.80;87.90;;;;;;5112796;28;20545;-75
2022/11/04 12:59:45;;;;;;;1.23;1.13;;;13.00;87.90;;;;;;5112946;28;20036;-76
2022/11/04 13:02:21;;;;;;;1.55;1.20;;;12.90;87.70;;;;;;5094184;28;20032;-75
2022/11/04 13:04:59;;;;;;;1.90;1.30;;;12.90;87.70;;;;;;5112438;28;20035;-76
2022/11/04 13:07:38;;;;;;;1.40;1.10;;;12.90;87.70;;;;;;5110793;28;20542;-75
2022/11/04 13:10:16;;;;;;;1.85;1.27;;;12.90;87.70;;;;;;5112302;28;20124;-74
2022/11/04 13:12:44;;;;;;;1.60;1.50;;;12.80;87.60;;;;;;5112372;28;20055;-74
2022/11/04 13:15:18;;;;;;;1.80;1.42;;;12.80;87.70;;;;;;5112345;28;20044;-77
2022/11/04 13:17:46;;;;;;;1.67;1.30;;;12.80;87.70;;;;;;5092618;28;20065;-76
2022/11/04 13:20:25;;;;;;;2.63;1.50;;;12.80;87.70;;;;;;5110627;28;20028;-74
2022/11/04 13:22:52;;;;;;;1.70;1.17;;;12.70;87.60;;;;;;5095774;28;20038;-74
2022/11/04 13:25:40;;;;;;;1.95;1.33;;;12.80;87.70;;;;;;5112534;28;20430;-75
2022/11/04 13:28:12;;;;;;;1.73;1.35;;;12.80;87.70;;;;;;5112333;28;20058;-73
2022/11/04 13:30:46;;;;;;;2.25;1.52;;;12.80;87.80;;;;;;5112581;28;20067;-73
2022/11/04 13:33:32;;;;;;;1.60;1.20;;;12.80;87.60;;;;;;5112413;28;20047;-73
2022/11/04 13:36:21;;;;;;;3.33;1.80;;;12.80;87.70;;;;;;5093042;28;20031;-73
2022/11/04 13:38:56;;;;;;;2.42;1.42;;;12.90;87.70;;;;;;5093361;28;20066;-73
2022/11/04 13:41:56;;;;;;;2.45;1.73;;;12.80;87.60;;;;;;5077969;28;20067;-73
2022/11/04 13:44:26;;;;;;;1.70;1.40;;;12.80;87.60;;;;;;5111949;28;20043;-73